sensor_id;sensor_type;location;lat;lon;timestamp;P1;durP1;ratioP1;P2;durP2;ratioP2
80227;SDS011;69539;42.138;24.742;2024-01-10T09:07:07;7.90;;;6.00;;
80227;SDS011;69539;42.138;24.742;2024-01-10T09:09:34;7.95;;;6.20;;
80227;SDS011;69539;42.138;24.742;2024-01-10T09:12:00;8.68;;;6.47;;
80227;SDS011;69539;42.138;24.742;2024-01-10T09:14:25;7.72;;;5.97;;
80227;SDS011;69539;42.138;24.742;2024-01-10T09:16:51;9.63;;;6.10;;
80227;SDS011;69539;42.138;24.742;2024-01-10T09:19:17;9.18;;;6.85;;
80227;SDS011;69539;42.138;24.742;2024-01-10T09:21:43;9.35;;;6.22;;
80227;SDS011;69539;42.138;24.742;2024-01-10T09:53:26;7.85;;;5.72;;
80227;SDS011;69539;42.138;24.742;2024-01-10T09:55:52;7.20;;;5.80;;
80227;SDS011;69539;42.138;24.742;2024-01-10T09:58:24;9.35;;;5.82;;
80227;SDS011;69539;42.138;24.742;2024-01-10T10:00:50;7.18;;;5.32;;
80227;SDS011;69539;42.138;24.742;2024-01-10T10:03:18;7.68;;;6.03;;
80227;SDS011;69539;42.138;24.742;2024-01-10T10:05:44;8.27;;;5.40;;
80227;SDS011;69539;42.138;24.742;2024-01-10T10:08:11;10.05;;;6.13;;
80227;SDS011;69539;42.138;24.742;2024-01-10T10:10:40;8.18;;;6.15;;
80227;SDS011;69539;42.138;24.742;2024-01-10T10:13:09;7.47;;;5.45;;
80227;SDS011;69539;42.138;24.742;2024-01-10T10:15:56;7.55;;;6.10;;
80227;SDS011;69539;42.138;24.742;2024-01-10T10:18:29;7.53;;;5.47;;
80227;SDS011;69539;42.138;24.742;2024-01-10T10:21:12;7.00;;;5.30;;
80227;SDS011;69539;42.138;24.742;2024-01-10T10:23:42;7.60;;;5.38;;
80227;SDS011;69539;42.138;24.742;2024-01-10T10:26:22;7.90;;;5.38;;
80227;SDS011;69539;42.138;24.742;2024-01-10T10:31:18;7.95;;;5.68;;
80227;SDS011;69539;42.138;24.742;2024-01-10T10:33:45;6.22;;;5.15;;
80227;SDS011;69539;42.138;24.742;2024-01-10T10:36:13;7.50;;;5.38;;
80227;SDS011;69539;42.138;24.742;2024-01-10T10:38:39;7.32;;;5.53;;
80227;SDS011;69539;42.138;24.742;2024-01-10T10:41:06;6.65;;;5.40;;
80227;SDS011;69539;42.138;24.742;2024-01-10T10:43:38;7.10;;;5.53;;
80227;SDS011;69539;42.138;24.742;2024-01-10T10:46:05;8.10;;;5.03;;
80227;SDS011;69539;42.138;24.742;2024-01-10T10:48:32;6.33;;;4.93;;
80227;SDS011;69539;42.138;24.742;2024-01-10T10:51:11;7.28;;;4.97;;
80227;SDS011;69539;42.138;24.742;2024-01-10T10:53:42;8.13;;;5.45;;
80227;SDS011;69539;42.138;24.742;2024-01-10T10:56:10;6.97;;;5.25;;
80227;SDS011;69539;42.138;24.742;2024-01-10T10:58:41;6.93;;;5.05;;
80227;SDS011;69539;42.138;24.742;2024-01-10T11:01:09;7.38;;;5.03;;
80227;SDS011;69539;42.138;24.742;2024-01-10T11:03:38;5.88;;;4.70;;
80227;SDS011;69539;42.138;24.742;2024-01-10T11:06:12;6.13;;;4.50;;
80227;SDS011;69539;42.138;24.742;2024-01-10T11:08:45;7.05;;;4.75;;
80227;SDS011;69539;42.138;24.742;2024-01-10T11:25:22;6.93;;;4.63;;
80227;SDS011;69539;42.138;24.742;2024-01-10T11:27:54;6.80;;;4.30;;
80227;SDS011;69539;42.138;24.742;2024-01-10T11:34:50;9.13;;;6.18;;
80227;SDS011;69539;42.138;24.742;2024-01-10T11:37:18;9.90;;;4.95;;
80227;SDS011;69539;42.138;24.742;2024-01-10T11:39:44;7.22;;;4.75;;
80227;SDS011;69539;42.138;24.742;2024-01-10T11:42:10;6.35;;;4.70;;
80227;SDS011;69539;42.138;24.742;2024-01-10T11:44:48;7.75;;;4.45;;
80227;SDS011;69539;42.138;24.742;2024-01-10T11:47:14;7.93;;;4.32;;
80227;SDS011;69539;42.138;24.742;2024-01-10T11:49:40;5.85;;;4.40;;
80227;SDS011;69539;42.138;24.742;2024-01-10T11:52:18;5.70;;;4.38;;
80227;SDS011;69539;42.138;24.742;2024-01-10T11:54:47;6.88;;;4.65;;
80227;SDS011;69539;42.138;24.742;2024-01-10T11:59:41;6.22;;;4.38;;
80227;SDS011;69539;42.138;24.742;2024-01-10T12:02:08;8.20;;;4.70;;
80227;SDS011;69539;42.138;24.742;2024-01-10T12:04:35;6.75;;;4.47;;
80227;SDS011;69539;42.138;24.742;2024-01-10T12:07:05;6.80;;;4.43;;
80227;SDS011;69539;42.138;24.742;2024-01-10T12:09:32;5.93;;;4.15;;
80227;SDS011;69539;42.138;24.742;2024-01-10T12:11:59;6.70;;;4.38;;
80227;SDS011;69539;42.138;24.742;2024-01-10T12:14:25;7.90;;;4.78;;
80227;SDS011;69539;42.138;24.742;2024-01-10T12:16:51;6.50;;;4.50;;
80227;SDS011;69539;42.138;24.742;2024-01-10T12:19:17;6.90;;;4.22;;
80227;SDS011;69539;42.138;24.742;2024-01-10T12:21:43;6.20;;;4.25;;
80227;SDS011;69539;42.138;24.742;2024-01-10T12:24:09;5.20;;;4.22;;
80227;SDS011;69539;42.138;24.742;2024-01-10T12:26:35;5.97;;;4.22;;
80227;SDS011;69539;42.138;24.742;2024-01-10T12:29:03;5.55;;;4.22;;
80227;SDS011;69539;42.138;24.742;2024-01-10T12:31:31;6.35;;;4.25;;
80227;SDS011;69539;42.138;24.742;2024-01-10T12:33:57;4.97;;;3.95;;
80227;SDS011;69539;42.138;24.742;2024-01-10T12:36:24;5.32;;;3.97;;
80227;SDS011;69539;42.138;24.742;2024-01-10T12:38:50;5.65;;;3.95;;
80227;SDS011;69539;42.138;24.742;2024-01-10T12:41:16;7.25;;;4.50;;
80227;SDS011;69539;42.138;24.742;2024-01-10T12:43:43;5.87;;;4.03;;
80227;SDS011;69539;42.138;24.742;2024-01-10T12:46:25;7.55;;;4.13;;
80227;SDS011;69539;42.138;24.742;2024-01-10T12:49:04;5.50;;;4.22;;
80227;SDS011;69539;42.138;24.742;2024-01-10T12:51:32;7.13;;;4.22;;
80227;SDS011;69539;42.138;24.742;2024-01-10T12:53:58;5.35;;;4.10;;
80227;SDS011;69539;42.138;24.742;2024-01-10T12:56:26;5.28;;;4.15;;
80227;SDS011;69539;42.138;24.742;2024-01-10T12:58:52;5.75;;;4.07;;
80227;SDS011;69539;42.138;24.742;2024-01-10T13:01:20;7.55;;;4.00;;
80227;SDS011;69539;42.138;24.742;2024-01-10T13:03:47;6.45;;;4.15;;
80227;SDS011;69539;42.138;24.742;2024-01-10T13:06:13;6.07;;;3.97;;
80227;SDS011;69539;42.138;24.742;2024-01-10T13:08:39;5.40;;;4.00;;
80227;SDS011;69539;42.138;24.742;2024-01-10T13:11:07;5.15;;;3.85;;
80227;SDS011;69539;42.138;24.742;2024-01-10T13:13:37;5.07;;;4.15;;
80227;SDS011;69539;42.138;24.742;2024-01-10T13:16:04;6.35;;;4.53;;
80227;SDS011;69539;42.138;24.742;2024-01-10T13:18:30;6.28;;;4.32;;
80227;SDS011;69539;42.138;24.742;2024-01-10T13:20:55;7.30;;;4.10;;
80227;SDS011;69539;42.138;24.742;2024-01-10T13:23:21;5.75;;;3.78;;
80227;SDS011;69539;42.138;24.742;2024-01-10T13:25:49;7.40;;;4.30;;
80227;SDS011;69539;42.138;24.742;2024-01-10T13:28:15;4.78;;;4.00;;
80227;SDS011;69539;42.138;24.742;2024-01-10T13:30:41;6.63;;;3.85;;
80227;SDS011;69539;42.138;24.742;2024-01-10T13:33:08;4.75;;;4.07;;
80227;SDS011;69539;42.138;24.742;2024-01-10T13:35:35;6.60;;;3.80;;
80227;SDS011;69539;42.138;24.742;2024-01-10T13:38:01;5.05;;;3.90;;
80227;SDS011;69539;42.138;24.742;2024-01-10T13:40:27;6.03;;;3.78;;
80227;SDS011;69539;42.138;24.742;2024-01-10T13:42:53;7.60;;;4.00;;
80227;SDS011;69539;42.138;24.742;2024-01-10T13:45:18;5.95;;;4.13;;
80227;SDS011;69539;42.138;24.742;2024-01-10T13:47:45;5.70;;;3.97;;
80227;SDS011;69539;42.138;24.742;2024-01-10T13:50:13;9.10;;;4.38;;
80227;SDS011;69539;42.138;24.742;2024-01-10T13:52:40;5.93;;;4.20;;
80227;SDS011;69539;42.138;24.742;2024-01-10T13:55:07;5.78;;;3.72;;
80227;SDS011;69539;42.138;24.742;2024-01-10T13:57:33;5.50;;;4.10;;
80227;SDS011;69539;42.138;24.742;2024-01-10T13:59:59;5.57;;;4.00;;
80227;SDS011;69539;42.138;24.742;2024-01-10T14:02:25;8.50;;;4.20;;
80227;SDS011;69539;42.138;24.742;2024-01-10T14:04:51;6.30;;;4.20;;
80227;SDS011;69539;42.138;24.742;2024-01-10T14:07:19;5.93;;;4.40;;
80227;SDS011;69539;42.138;24.742;2024-01-10T14:09:45;7.00;;;4.30;;
80227;SDS011;69539;42.138;24.742;2024-01-10T14:12:11;4.90;;;3.70;;
80227;SDS011;69539;42.138;24.742;2024-01-10T14:14:37;6.53;;;3.80;;
80227;SDS011;69539;42.138;24.742;2024-01-10T14:17:03;6.07;;;4.07;;
80227;SDS011;69539;42.138;24.742;2024-01-10T14:19:29;5.00;;;4.00;;
80227;SDS011;69539;42.138;24.742;2024-01-10T14:21:55;5.90;;;4.10;;
80227;SDS011;69539;42.138;24.742;2024-01-10T14:24:21;6.63;;;4.22;;
80227;SDS011;69539;42.138;24.742;2024-01-10T14:26:47;6.32;;;4.20;;
80227;SDS011;69539;42.138;24.742;2024-01-10T14:29:12;7.40;;;4.07;;
80227;SDS011;69539;42.138;24.742;2024-01-10T14:31:38;4.57;;;3.75;;
80227;SDS011;69539;42.138;24.742;2024-01-10T14:34:05;7.80;;;4.30;;
80227;SDS011;69539;42.138;24.742;2024-01-10T14:36:32;6.15;;;4.38;;
80227;SDS011;69539;42.138;24.742;2024-01-10T14:38:58;7.33;;;4.53;;
80227;SDS011;69539;42.138;24.742;2024-01-10T14:41:24;7.82;;;4.40;;
